EGPE/INV METAR and TAF weather

Enter ICAO airport designator
Station Type Date Time Source
EGPE METAR 2018/10/16 20:20 UTC NOAA

EGPE 162020Z 23018KT CAVOK 12/09 Q1005


Station Type Date Time Source
EGPE Decoded METAR 2018/10/16 20:20 UTC NOAA

Inverness / Dalcross, United Kingdom (EGPE) 57-32N 004-03W 0M
Oct 16, 2018 - 04:20 PM EDT / 2018.10.16 2020 UTC
Wind: from the SW (230 degrees) at 21 MPH (18 KT):0
Visibility: greater than 7 mile(s):0
Temperature: 53 F (12 C)
Dew Point: 48 F (9 C)
Relative Humidity: 81%
Pressure (altimeter): 29.68 in. Hg (1005 hPa)
ob: EGPE 162020Z 23018KT CAVOK 12/09 Q1005
cycle: 20

Station Type Date Time Source
EGPE TAF UTC NOAA

Error!


Example: see airport list